createdAt,value
2023-04-04T00:00:02.997Z,990.79
2023-04-04T00:01:03.063Z,990.85
2023-04-04T00:02:03.245Z,990.82
2023-04-04T00:03:03.519Z,990.77
2023-04-04T00:04:03.692Z,990.85
2023-04-04T00:05:03.652Z,990.91
2023-04-04T00:06:03.622Z,990.91
2023-04-04T00:07:03.660Z,990.88
2023-04-04T00:08:03.723Z,990.74
2023-04-04T00:09:03.742Z,990.88
2023-04-04T00:10:04.144Z,990.82
2023-04-04T00:11:03.314Z,990.88
2023-04-04T00:12:03.406Z,990.82
2023-04-04T00:13:03.567Z,990.80
2023-04-04T00:14:03.708Z,990.74
2023-04-04T00:15:03.842Z,990.79
2023-04-04T00:16:04.154Z,990.85
2023-04-04T00:17:03.943Z,990.74
2023-04-04T00:18:03.236Z,990.68
2023-04-04T00:19:03.089Z,990.74
2023-04-04T00:20:03.239Z,990.79
2023-04-04T00:21:03.199Z,990.85
2023-04-04T00:22:03.446Z,990.79
2023-04-04T00:23:03.423Z,990.80
2023-04-04T00:24:03.333Z,990.71
2023-04-04T00:25:03.570Z,990.66
2023-04-04T00:26:03.490Z,990.68
2023-04-04T00:27:03.477Z,990.66
2023-04-04T00:28:03.705Z,990.74
2023-04-04T00:29:03.676Z,990.68
2023-04-04T00:30:03.730Z,990.60
2023-04-04T00:31:03.842Z,990.71
2023-04-04T00:32:03.060Z,990.54
2023-04-04T00:33:03.188Z,990.63
2023-04-04T00:34:03.099Z,990.60
2023-04-04T00:35:03.083Z,990.60
2023-04-04T00:36:03.313Z,990.60
2023-04-04T00:37:03.287Z,990.60
2023-04-04T00:38:03.292Z,990.57
2023-04-04T00:39:03.330Z,990.57
2023-04-04T00:40:03.537Z,990.57
2023-04-04T00:41:03.512Z,990.52
2023-04-04T00:42:03.431Z,990.44
2023-04-04T00:43:03.564Z,990.38
2023-04-04T00:44:03.764Z,990.52
2023-04-04T00:45:03.864Z,990.41
2023-04-04T00:46:03.217Z,990.38
2023-04-04T00:47:03.220Z,990.38
2023-04-04T00:48:03.400Z,990.41
2023-04-04T00:49:03.494Z,990.38
2023-04-04T00:50:03.630Z,990.36
2023-04-04T00:51:03.715Z,990.30
2023-04-04T00:52:03.813Z,990.24
2023-04-04T00:53:03.843Z,990.16
2023-04-04T00:54:03.870Z,990.22
2023-04-04T00:55:04.097Z,990.36
2023-04-04T00:56:03.157Z,990.16
2023-04-04T00:57:03.128Z,990.38
2023-04-04T00:58:03.419Z,990.19
2023-04-04T00:59:03.263Z,990.16
2023-04-04T01:00:03.292Z,990.22
2023-04-04T01:01:03.782Z,990.10
2023-04-04T01:02:03.639Z,990.16
2023-04-04T01:03:03.707Z,990.08
2023-04-04T01:04:03.704Z,990.10
2023-04-04T01:05:03.874Z,990.16
2023-04-04T01:06:03.845Z,990.10
2023-04-04T01:07:04.128Z,990.22
2023-04-04T01:08:03.023Z,990.05
2023-04-04T01:09:03.003Z,990.13
2023-04-04T01:10:03.092Z,990.08
2023-04-04T01:11:03.230Z,990.13
2023-04-04T01:12:03.243Z,989.99
2023-04-04T01:13:03.262Z,990.10
2023-04-04T01:14:03.312Z,990.05
2023-04-04T01:15:03.293Z,989.94
2023-04-04T01:16:03.334Z,989.97
2023-04-04T01:17:03.810Z,990.11
2023-04-04T01:18:03.772Z,989.94
2023-04-04T01:19:03.706Z,990.08
2023-04-04T01:20:03.775Z,989.99
2023-04-04T01:21:03.752Z,989.94
2023-04-04T01:22:04.043Z,989.97
2023-04-04T01:23:02.994Z,990.05
2023-04-04T01:24:02.976Z,989.94
2023-04-04T01:25:03.151Z,989.94
2023-04-04T01:26:03.574Z,989.88
2023-04-04T01:27:03.645Z,989.91
2023-04-04T01:28:03.889Z,989.83
2023-04-04T01:29:02.951Z,989.96
2023-04-04T01:30:02.979Z,989.94
2023-04-04T01:31:03.286Z,989.83
2023-04-04T01:32:03.227Z,989.85
2023-04-04T01:33:03.290Z,989.96
2023-04-04T01:34:03.408Z,989.71
2023-04-04T01:35:03.596Z,989.83
2023-04-04T01:36:03.817Z,989.88
2023-04-04T01:37:03.949Z,989.88
2023-04-04T01:38:03.749Z,989.83
2023-04-04T01:39:03.861Z,989.71
2023-04-04T01:40:04.104Z,989.69
2023-04-04T01:41:02.986Z,989.94
2023-04-04T01:42:03.158Z,989.83
2023-04-04T01:43:03.330Z,989.80
2023-04-04T01:44:03.265Z,989.71
2023-04-04T01:45:03.325Z,989.77
2023-04-04T01:46:03.613Z,989.67
2023-04-04T01:47:03.620Z,989.77
2023-04-04T01:48:03.710Z,989.74
2023-04-04T01:49:03.696Z,989.88
2023-04-04T01:50:03.791Z,989.71
2023-04-04T01:51:03.745Z,989.77
2023-04-04T01:52:04.079Z,989.88
2023-04-04T01:53:03.018Z,989.69
2023-04-04T01:54:03.052Z,989.83
2023-04-04T01:55:03.191Z,989.71
2023-04-04T01:56:03.067Z,989.64
2023-04-04T01:57:03.210Z,989.64
2023-04-04T01:58:03.316Z,989.69
2023-04-04T01:59:03.264Z,989.71
2023-04-04T02:00:03.336Z,989.71
2023-04-04T02:01:03.553Z,989.77
2023-04-04T02:02:03.730Z,989.61
2023-04-04T02:03:03.792Z,989.69
2023-04-04T02:04:04.187Z,989.58
2023-04-04T02:05:03.126Z,989.69
2023-04-04T02:06:03.111Z,989.53
2023-04-04T02:07:03.056Z,989.67
2023-04-04T02:08:03.168Z,989.50
2023-04-04T02:09:03.158Z,989.50
2023-04-04T02:10:03.581Z,989.53
2023-04-04T02:11:03.324Z,989.71
2023-04-04T02:12:03.540Z,989.56
2023-04-04T02:13:03.477Z,989.69
2023-04-04T02:14:03.524Z,989.61
2023-04-04T02:15:03.602Z,989.69
2023-04-04T02:16:03.949Z,989.56
2023-04-04T02:17:02.999Z,989.61
2023-04-04T02:18:03.052Z,989.59
2023-04-04T02:19:03.256Z,989.56
2023-04-04T02:20:03.265Z,989.61
2023-04-04T02:21:03.214Z,989.61
2023-04-04T02:22:03.452Z,989.64
2023-04-04T02:23:03.463Z,989.56
2023-04-04T02:24:03.559Z,989.47
2023-04-04T02:25:03.757Z,989.53
2023-04-04T02:26:03.675Z,989.50
2023-04-04T02:27:03.762Z,989.50
2023-04-04T02:28:04.224Z,989.47
2023-04-04T02:29:03.106Z,989.56
2023-04-04T02:30:03.111Z,989.45
2023-04-04T02:31:03.319Z,989.39
2023-04-04T02:32:03.192Z,989.45
2023-04-04T02:33:03.318Z,989.28
2023-04-04T02:34:03.403Z,989.47
2023-04-04T02:35:03.546Z,989.47
2023-04-04T02:36:03.599Z,989.42
2023-04-04T02:37:03.600Z,989.45
2023-04-04T02:38:03.556Z,989.36
2023-04-04T02:39:03.724Z,989.22
2023-04-04T02:40:03.842Z,989.28
2023-04-04T02:41:03.929Z,989.33
2023-04-04T02:42:02.992Z,989.36
2023-04-04T02:43:02.997Z,989.31
2023-04-04T02:44:03.131Z,989.20
2023-04-04T02:45:03.213Z,989.25
2023-04-04T02:46:21.450Z,989.28
2023-04-04T02:47:03.269Z,989.22
2023-04-04T02:48:03.283Z,989.34
2023-04-04T02:49:03.152Z,989.17
2023-04-04T02:50:03.455Z,989.14
2023-04-04T02:51:03.244Z,989.36
2023-04-04T02:52:03.341Z,989.28
2023-04-04T02:53:03.401Z,989.08
2023-04-04T02:54:03.363Z,989.20
2023-04-04T02:55:03.506Z,989.11
2023-04-04T02:56:03.481Z,989.08
2023-04-04T02:57:03.649Z,989.31
2023-04-04T02:58:03.944Z,989.11
2023-04-04T02:59:03.090Z,989.28
2023-04-04T03:00:02.972Z,989.03
2023-04-04T03:01:03.200Z,989.28
2023-04-04T03:02:03.175Z,989.08
2023-04-04T03:03:03.378Z,989.08
2023-04-04T03:04:03.314Z,989.06
2023-04-04T03:05:03.232Z,989.06
2023-04-04T03:06:03.085Z,989.06
2023-04-04T03:07:03.168Z,989.03
2023-04-04T03:08:03.209Z,989.17
2023-04-04T03:09:03.771Z,989.11
2023-04-04T03:10:04.065Z,989.11
2023-04-04T03:11:03.072Z,989.17
2023-04-04T03:12:03.174Z,988.97
2023-04-04T03:13:03.192Z,989.14
2023-04-04T03:14:03.215Z,989.14
2023-04-04T03:15:03.311Z,989.00
2023-04-04T03:16:03.711Z,989.03
2023-04-04T03:17:03.585Z,988.97
2023-04-04T03:18:03.767Z,989.06
2023-04-04T03:19:03.819Z,988.95
2023-04-04T03:20:03.702Z,988.97
2023-04-04T03:21:03.709Z,989.03
2023-04-04T03:22:04.061Z,989.03
2023-04-04T03:23:03.041Z,988.95
2023-04-04T03:24:03.130Z,988.92
2023-04-04T03:25:03.336Z,989.06
2023-04-04T03:26:03.328Z,988.86
2023-04-04T03:27:03.536Z,988.92
2023-04-04T03:28:03.706Z,989.00
2023-04-04T03:29:03.631Z,988.92
2023-04-04T03:30:03.632Z,989.06
2023-04-04T03:31:03.910Z,988.95
2023-04-04T03:32:03.949Z,988.89
2023-04-04T03:33:03.852Z,988.92
2023-04-04T03:34:04.176Z,988.86
2023-04-04T03:35:03.077Z,988.84
2023-04-04T03:36:03.206Z,988.84
2023-04-04T03:37:03.111Z,988.89
2023-04-04T03:38:03.110Z,988.84
2023-04-04T03:39:03.140Z,988.75
2023-04-04T03:40:03.311Z,988.84
2023-04-04T03:41:03.398Z,988.84
2023-04-04T03:42:03.465Z,988.78
2023-04-04T03:43:03.560Z,988.73
2023-04-04T03:44:03.635Z,988.78
2023-04-04T03:45:03.526Z,988.78
2023-04-04T03:46:03.658Z,988.81
2023-04-04T03:47:03.831Z,988.81
2023-04-04T03:48:03.997Z,988.64
2023-04-04T03:49:04.101Z,988.67
2023-04-04T03:50:03.322Z,988.56
2023-04-04T03:51:03.261Z,988.67
2023-04-04T03:52:03.557Z,988.70
2023-04-04T03:53:03.484Z,988.62
2023-04-04T03:54:03.527Z,988.62
2023-04-04T03:55:03.961Z,988.64
2023-04-04T03:56:03.806Z,988.62
2023-04-04T03:57:03.851Z,988.65
2023-04-04T03:58:04.130Z,988.56
2023-04-04T03:59:03.246Z,988.62
2023-04-04T04:00:03.201Z,988.56
2023-04-04T04:01:03.338Z,988.51
2023-04-04T04:02:03.224Z,988.54
2023-04-04T04:03:03.439Z,988.42
2023-04-04T04:04:03.400Z,988.48
2023-04-04T04:05:03.569Z,988.54
2023-04-04T04:06:03.626Z,988.56
2023-04-04T04:07:03.671Z,988.51
2023-04-04T04:08:03.032Z,988.42
2023-04-04T04:09:02.970Z,988.40
2023-04-04T04:10:03.230Z,988.48
2023-04-04T04:11:03.316Z,988.45
2023-04-04T04:12:03.241Z,988.48
2023-04-04T04:13:03.377Z,988.43
2023-04-04T04:14:03.552Z,988.48
2023-04-04T04:15:03.573Z,988.43
2023-04-04T04:16:03.946Z,988.37
2023-04-04T04:17:03.671Z,988.48
2023-04-04T04:18:03.896Z,988.51
2023-04-04T04:19:03.853Z,988.40
2023-04-04T04:20:03.803Z,988.40
2023-04-04T04:21:03.881Z,988.54
2023-04-04T04:22:03.032Z,988.45
2023-04-04T04:23:03.053Z,988.51
2023-04-04T04:24:03.133Z,988.51
2023-04-04T04:25:03.491Z,988.45
2023-04-04T04:26:03.414Z,988.57
2023-04-04T04:27:03.446Z,988.48
2023-04-04T04:28:03.573Z,988.48
2023-04-04T04:29:03.678Z,988.43
2023-04-04T04:30:03.727Z,988.43
2023-04-04T04:31:03.925Z,988.48
2023-04-04T04:32:03.915Z,988.48
2023-04-04T04:33:03.950Z,988.48
2023-04-04T04:34:04.209Z,988.46
2023-04-04T04:35:03.126Z,988.71
2023-04-04T04:36:03.125Z,988.43
2023-04-04T04:37:03.389Z,988.60
2023-04-04T04:38:03.550Z,988.40
2023-04-04T04:39:03.568Z,988.48
2023-04-04T04:40:04.016Z,988.48
2023-04-04T04:41:03.949Z,988.43
2023-04-04T04:42:03.929Z,988.40
2023-04-04T04:43:03.323Z,988.60
2023-04-04T04:44:03.198Z,988.46
2023-04-04T04:45:03.090Z,988.34
2023-04-04T04:46:03.082Z,988.59
2023-04-04T04:47:03.153Z,988.40
2023-04-04T04:48:03.493Z,988.46
2023-04-04T04:49:03.478Z,988.43
2023-04-04T04:50:03.269Z,988.40
2023-04-04T04:51:03.206Z,988.46
2023-04-04T04:52:03.457Z,988.51
2023-04-04T04:53:03.769Z,988.40
2023-04-04T04:54:03.348Z,988.48
2023-04-04T04:55:03.548Z,988.35
2023-04-04T04:56:03.477Z,988.35
2023-04-04T04:57:03.515Z,988.57
2023-04-04T04:58:03.734Z,988.35
2023-04-04T04:59:03.741Z,988.54
2023-04-04T05:00:03.721Z,988.40
2023-04-04T05:01:04.059Z,988.40
2023-04-04T05:02:03.086Z,988.43
2023-04-04T05:03:03.210Z,988.46
2023-04-04T05:04:03.155Z,988.32
2023-04-04T05:05:03.888Z,988.35
2023-04-04T05:06:02.963Z,988.40
2023-04-04T05:07:03.142Z,988.40
2023-04-04T05:08:03.169Z,988.40
2023-04-04T05:09:03.148Z,988.46
2023-04-04T05:10:03.339Z,988.34
2023-04-04T05:11:05.833Z,988.35
2023-04-04T05:12:03.590Z,988.46
2023-04-04T05:13:03.670Z,988.48
2023-04-04T05:14:03.708Z,988.48
2023-04-04T05:15:03.577Z,988.40
2023-04-04T05:16:03.843Z,988.46
2023-04-04T05:17:03.874Z,988.43
2023-04-04T05:18:03.850Z,988.51
2023-04-04T05:19:04.029Z,988.48
2023-04-04T05:20:03.260Z,988.46
2023-04-04T05:21:03.222Z,988.48
2023-04-04T05:22:03.197Z,988.57
2023-04-04T05:23:03.110Z,988.40
2023-04-04T05:24:02.962Z,988.46
2023-04-04T05:25:03.097Z,988.46
2023-04-04T05:26:03.536Z,988.35
2023-04-04T05:27:03.601Z,988.60
2023-04-04T05:28:03.647Z,988.54
2023-04-04T05:29:03.840Z,988.57
2023-04-04T05:30:03.803Z,988.40
2023-04-04T05:31:03.089Z,988.65
2023-04-04T05:32:03.172Z,988.48
2023-04-04T05:33:03.318Z,988.43
2023-04-04T05:34:03.509Z,988.54
2023-04-04T05:35:03.722Z,988.57
2023-04-04T05:36:03.778Z,988.59
2023-04-04T05:37:03.857Z,988.57
2023-04-04T05:38:02.918Z,988.57
2023-04-04T05:39:02.951Z,988.48
2023-04-04T05:40:02.972Z,988.51
2023-04-04T05:41:03.602Z,988.40
2023-04-04T05:42:03.719Z,988.62
2023-04-04T05:43:04.192Z,988.54
2023-04-04T05:44:03.072Z,988.48
2023-04-04T05:45:03.107Z,988.51
2023-04-04T05:46:03.210Z,988.62
2023-04-04T05:47:03.269Z,988.60
2023-04-04T05:48:03.297Z,988.46
2023-04-04T05:49:03.239Z,988.51
2023-04-04T05:50:03.452Z,988.48
2023-04-04T05:51:03.580Z,988.40
2023-04-04T05:52:03.286Z,988.46
2023-04-04T05:53:03.090Z,988.68
2023-04-04T05:54:03.151Z,988.57
2023-04-04T05:55:03.150Z,988.54
2023-04-04T05:56:03.060Z,988.57
2023-04-04T05:57:03.098Z,988.68
2023-04-04T05:58:03.157Z,988.65
2023-04-04T05:59:03.243Z,988.76
2023-04-04T06:00:03.125Z,988.59
2023-04-04T06:01:03.311Z,988.79
2023-04-04T06:02:03.315Z,988.59
2023-04-04T06:03:03.564Z,988.59
2023-04-04T06:04:03.477Z,988.70
2023-04-04T06:05:03.548Z,988.76
2023-04-04T06:06:03.570Z,988.70
2023-04-04T06:07:03.522Z,988.56
2023-04-04T06:08:03.694Z,988.54
2023-04-04T06:09:03.790Z,988.70
2023-04-04T06:10:03.905Z,988.79
2023-04-04T06:11:04.021Z,988.82
2023-04-04T06:12:04.323Z,988.70
2023-04-04T06:13:03.417Z,988.62
2023-04-04T06:14:03.528Z,988.82
2023-04-04T06:15:03.544Z,988.76
2023-04-04T06:16:03.824Z,988.73
2023-04-04T06:17:03.665Z,988.70
2023-04-04T06:18:03.910Z,988.73
2023-04-04T06:19:03.946Z,988.62
2023-04-04T06:20:03.846Z,988.70
2023-04-04T06:21:03.012Z,988.62
2023-04-04T06:22:03.021Z,988.73
2023-04-04T06:23:03.109Z,988.73
2023-04-04T06:24:03.287Z,988.79
2023-04-04T06:25:03.384Z,988.87
2023-04-04T06:26:03.275Z,988.73
2023-04-04T06:27:03.467Z,988.70
2023-04-04T06:28:03.256Z,988.78
2023-04-04T06:29:03.354Z,988.65
2023-04-04T06:30:03.384Z,988.70
2023-04-04T06:31:03.545Z,988.67
2023-04-04T06:32:03.546Z,988.87
2023-04-04T06:33:03.666Z,988.70
2023-04-04T06:34:03.897Z,988.76
2023-04-04T06:35:03.066Z,988.78
2023-04-04T06:36:03.135Z,988.76
2023-04-04T06:37:03.113Z,988.73
2023-04-04T06:38:03.454Z,988.81
2023-04-04T06:39:03.271Z,988.70
2023-04-04T06:40:03.504Z,988.70
2023-04-04T06:41:03.616Z,988.81
2023-04-04T06:42:03.706Z,988.81
2023-04-04T06:43:03.808Z,988.78
2023-04-04T06:44:03.857Z,988.70
2023-04-04T06:45:03.876Z,988.72
2023-04-04T06:46:04.116Z,988.72
2023-04-04T06:47:03.120Z,988.72
2023-04-04T06:48:03.242Z,988.70
2023-04-04T06:49:03.178Z,988.78
2023-04-04T06:50:03.254Z,988.67
2023-04-04T06:51:03.699Z,988.78
2023-04-04T06:52:03.885Z,988.81
2023-04-04T06:53:03.092Z,988.86
2023-04-04T06:54:03.136Z,988.86
2023-04-04T06:55:03.250Z,988.78
2023-04-04T06:56:03.162Z,988.69
2023-04-04T06:57:03.353Z,988.72
2023-04-04T06:58:03.526Z,988.80
2023-04-04T06:59:03.478Z,988.66
2023-04-04T07:00:03.288Z,988.83
2023-04-04T07:01:03.453Z,988.80
2023-04-04T07:02:03.461Z,988.89
2023-04-04T07:03:03.554Z,988.80
2023-04-04T07:04:03.946Z,988.80
2023-04-04T07:05:03.767Z,988.77
2023-04-04T07:06:03.673Z,988.83
2023-04-04T07:07:03.873Z,988.72
2023-04-04T07:08:03.835Z,988.74
2023-04-04T07:09:03.951Z,988.83
2023-04-04T07:10:04.211Z,988.72
2023-04-04T07:11:03.219Z,988.77
2023-04-04T07:12:04.377Z,988.85
2023-04-04T07:13:03.617Z,988.85
2023-04-04T07:14:03.586Z,988.63
2023-04-04T07:15:03.099Z,988.91
2023-04-04T07:16:03.417Z,988.80
2023-04-04T07:17:21.744Z,988.85
2023-04-04T07:18:03.461Z,989.02
2023-04-04T07:19:03.255Z,988.77
2023-04-04T07:20:05.166Z,988.82
2023-04-04T07:21:03.370Z,988.88
2023-04-04T07:22:03.402Z,988.74
2023-04-04T07:23:03.535Z,988.85
2023-04-04T07:24:03.442Z,988.85
2023-04-04T07:25:03.527Z,988.99
2023-04-04T07:26:03.608Z,988.82
2023-04-04T07:27:03.445Z,988.82
2023-04-04T07:28:13.586Z,988.82
2023-04-04T07:29:03.512Z,988.90
2023-04-04T07:30:03.539Z,988.90
2023-04-04T07:31:03.680Z,989.04
2023-04-04T07:32:03.595Z,988.96
2023-04-04T07:33:03.523Z,988.84
2023-04-04T07:34:03.644Z,988.90
2023-04-04T07:35:03.487Z,989.01
2023-04-04T07:36:03.661Z,988.93
2023-04-04T07:37:03.741Z,988.98
2023-04-04T07:38:03.645Z,989.06
2023-04-04T07:39:03.694Z,988.98
2023-04-04T07:40:03.847Z,989.01
2023-04-04T07:41:04.762Z,988.98
2023-04-04T07:42:03.760Z,989.01
2023-04-04T07:43:03.898Z,988.92
2023-04-04T07:44:03.014Z,989.12
2023-04-04T07:45:03.187Z,989.09
2023-04-04T07:46:03.221Z,988.95
2023-04-04T07:47:10.637Z,988.92
2023-04-04T07:48:03.520Z,989.00
2023-04-04T07:49:03.448Z,988.97
2023-04-04T07:50:03.355Z,988.97
2023-04-04T07:51:03.237Z,989.08
2023-04-04T07:52:03.534Z,989.03
2023-04-04T07:53:03.577Z,989.08
2023-04-04T07:54:03.427Z,989.17
2023-04-04T07:55:03.466Z,989.19
2023-04-04T07:56:03.474Z,989.11
2023-04-04T07:57:03.556Z,989.11
2023-04-04T07:58:03.698Z,989.11
2023-04-04T07:59:03.208Z,989.17
2023-04-04T08:00:03.256Z,989.28
2023-04-04T08:01:03.423Z,989.25
2023-04-04T08:02:03.404Z,989.25
2023-04-04T08:03:03.517Z,989.00
2023-04-04T08:04:03.829Z,989.22
2023-04-04T08:05:03.824Z,989.25
2023-04-04T08:06:03.774Z,989.22
2023-04-04T08:07:03.870Z,989.25
2023-04-04T08:08:03.559Z,989.16
2023-04-04T08:09:03.658Z,989.33
2023-04-04T08:10:03.989Z,989.44
2023-04-04T08:11:02.947Z,989.25
2023-04-04T08:12:03.039Z,989.44
2023-04-04T08:13:03.182Z,989.30
2023-04-04T08:14:03.277Z,989.25
2023-04-04T08:15:03.332Z,989.36
2023-04-04T08:16:03.623Z,989.33
2023-04-04T08:17:03.622Z,989.36
2023-04-04T08:18:03.832Z,989.44
2023-04-04T08:19:03.749Z,989.41
2023-04-04T08:20:03.935Z,989.46
2023-04-04T08:21:03.863Z,989.46
2023-04-04T08:22:04.096Z,989.43
2023-04-04T08:23:03.157Z,989.41
2023-04-04T08:24:03.199Z,989.29
2023-04-04T08:25:03.292Z,989.52
2023-04-04T08:26:03.292Z,989.43
2023-04-04T08:27:06.175Z,989.43
2023-04-04T08:28:03.636Z,989.43
2023-04-04T08:29:03.559Z,989.54
2023-04-04T08:30:03.501Z,989.48
2023-04-04T08:31:03.671Z,989.46
2023-04-04T08:32:03.666Z,989.62
2023-04-04T08:33:06.704Z,989.57
2023-04-04T08:34:03.823Z,989.65
2023-04-04T08:35:03.898Z,989.54
2023-04-04T08:36:03.815Z,989.65
2023-04-04T08:37:03.946Z,989.75
2023-04-04T08:38:03.815Z,989.65
2023-04-04T08:39:03.898Z,989.65
2023-04-04T08:40:03.099Z,989.54
2023-04-04T08:41:03.007Z,989.70
2023-04-04T08:42:03.128Z,989.54
2023-04-04T08:43:03.138Z,989.62
2023-04-04T08:44:03.113Z,989.68
2023-04-04T08:45:03.125Z,989.68
2023-04-04T08:46:03.171Z,989.78
2023-04-04T08:47:03.773Z,989.69
2023-04-04T08:48:03.442Z,989.78
2023-04-04T08:49:03.545Z,989.68
2023-04-04T08:50:03.636Z,989.75
2023-04-04T08:51:03.646Z,989.89
2023-04-04T08:52:03.986Z,989.95
2023-04-04T08:53:03.922Z,989.86
2023-04-04T08:54:03.856Z,989.75
2023-04-04T08:55:03.032Z,989.86
2023-04-04T08:56:03.206Z,989.83
2023-04-04T08:57:03.067Z,989.86
2023-04-04T08:58:03.117Z,989.77
2023-04-04T08:59:03.176Z,989.91
2023-04-04T09:00:03.355Z,989.88
2023-04-04T09:01:03.272Z,989.88
2023-04-04T09:02:03.182Z,990.05
2023-04-04T09:03:03.243Z,990.16
2023-04-04T09:04:03.229Z,989.97
2023-04-04T09:05:07.582Z,989.94
2023-04-04T09:06:03.385Z,989.97
2023-04-04T09:07:03.360Z,989.99
2023-04-04T09:08:03.377Z,990.05
2023-04-04T09:09:03.407Z,989.99
2023-04-04T09:10:03.479Z,990.11
2023-04-04T09:11:03.556Z,990.16
2023-04-04T09:12:03.750Z,990.16
2023-04-04T09:13:16.430Z,990.36
2023-04-04T09:14:03.655Z,990.33
2023-04-04T09:15:03.822Z,990.41
2023-04-04T09:16:03.963Z,990.39
2023-04-04T09:17:03.134Z,990.52
2023-04-04T09:18:03.299Z,990.49
2023-04-04T09:19:03.268Z,990.42
2023-04-04T09:20:03.429Z,990.61
2023-04-04T09:21:03.198Z,990.58
2023-04-04T09:22:03.205Z,990.58
2023-04-04T09:23:03.278Z,990.42
2023-04-04T09:24:03.211Z,990.33
2023-04-04T09:25:03.335Z,990.58
2023-04-04T09:26:05.040Z,990.66
2023-04-04T09:27:03.366Z,990.55
2023-04-04T09:28:03.427Z,990.63
2023-04-04T09:29:03.604Z,990.72
2023-04-04T09:30:06.020Z,990.89
2023-04-04T09:31:03.575Z,990.75
2023-04-04T09:32:03.547Z,990.80
2023-04-04T09:33:03.683Z,990.83
2023-04-04T09:34:03.472Z,990.75
2023-04-04T09:35:03.654Z,990.83
2023-04-04T09:36:03.904Z,990.95
2023-04-04T09:37:04.370Z,990.89
2023-04-04T09:38:03.205Z,990.86
2023-04-04T09:39:04.050Z,990.95
2023-04-04T09:40:04.256Z,990.83
2023-04-04T09:41:03.052Z,990.86
2023-04-04T09:42:03.050Z,990.95
2023-04-04T09:43:03.168Z,990.92
2023-04-04T09:44:03.120Z,990.92
2023-04-04T09:45:03.249Z,990.95
2023-04-04T09:46:03.285Z,991.09
2023-04-04T09:47:03.197Z,991.00
2023-04-04T09:48:03.467Z,991.00
2023-04-04T09:49:03.280Z,991.03
2023-04-04T09:50:03.357Z,990.97
2023-04-04T09:51:03.301Z,991.09
2023-04-04T09:52:03.529Z,991.14
2023-04-04T09:53:03.638Z,991.11
2023-04-04T09:54:03.756Z,991.03
2023-04-04T09:55:04.020Z,991.00
2023-04-04T09:56:04.136Z,991.11
2023-04-04T09:57:03.816Z,991.14
2023-04-04T09:58:04.076Z,991.06
2023-04-04T09:59:05.511Z,991.28
2023-04-04T10:00:03.022Z,991.11
2023-04-04T10:01:03.254Z,991.09
2023-04-04T10:02:03.155Z,991.25
2023-04-04T10:03:03.255Z,991.14
2023-04-04T10:04:03.091Z,991.20
2023-04-04T10:05:07.130Z,991.26
2023-04-04T10:06:07.527Z,991.09
2023-04-04T10:07:04.029Z,991.31
2023-04-04T10:08:03.060Z,991.14
2023-04-04T10:09:03.135Z,991.17
2023-04-04T10:10:03.027Z,991.26
2023-04-04T10:11:12.650Z,991.20
2023-04-04T10:12:03.081Z,991.17
2023-04-04T10:13:03.832Z,991.20
2023-04-04T10:14:04.115Z,991.06
2023-04-04T10:15:02.978Z,991.03
2023-04-04T10:16:03.441Z,991.06
2023-04-04T10:17:03.160Z,991.00
2023-04-04T10:18:03.394Z,991.11
2023-04-04T10:19:03.258Z,991.03
2023-04-04T10:20:03.006Z,990.94
2023-04-04T10:21:16.186Z,990.94
2023-04-04T10:22:04.023Z,991.03
2023-04-04T10:23:03.078Z,991.03
2023-04-04T10:24:03.189Z,991.03
2023-04-04T10:25:03.413Z,990.91
2023-04-04T10:26:03.507Z,990.91
2023-04-04T10:27:03.519Z,990.97
2023-04-04T10:28:03.599Z,990.94
2023-04-04T10:29:03.644Z,991.03
2023-04-04T10:30:03.836Z,990.91
2023-04-04T10:31:07.742Z,990.74
2023-04-04T10:32:04.005Z,990.77
2023-04-04T10:33:03.210Z,990.91
2023-04-04T10:34:03.241Z,990.80
2023-04-04T10:35:03.372Z,990.80
2023-04-04T10:36:03.459Z,990.80
2023-04-04T10:37:03.508Z,990.83
2023-04-04T10:38:03.367Z,990.94
2023-04-04T10:39:03.467Z,990.83
2023-04-04T10:40:03.556Z,990.88
2023-04-04T10:41:03.500Z,990.91
2023-04-04T10:42:03.541Z,990.94
2023-04-04T10:43:03.571Z,990.88
2023-04-04T10:44:03.716Z,990.94
2023-04-04T10:45:21.459Z,990.93
2023-04-04T10:46:03.043Z,990.76
2023-04-04T10:47:03.046Z,990.68
2023-04-04T10:48:03.100Z,990.73
2023-04-04T10:49:03.065Z,990.54
2023-04-04T10:50:02.987Z,990.65
2023-04-04T10:51:02.996Z,990.62
2023-04-04T10:52:03.239Z,990.56
2023-04-04T10:53:03.076Z,990.59
2023-04-04T10:54:03.079Z,990.53
2023-04-04T10:55:03.297Z,990.64
2023-04-04T10:56:03.229Z,990.50
2023-04-04T10:57:03.227Z,990.53
2023-04-04T10:58:03.323Z,990.67
2023-04-04T10:59:03.401Z,990.70
2023-04-04T11:00:03.806Z,990.59
2023-04-04T11:01:03.764Z,990.62
2023-04-04T11:02:03.762Z,990.51
2023-04-04T11:03:03.878Z,990.48
2023-04-04T11:04:03.922Z,990.59
2023-04-04T11:05:03.072Z,990.59
2023-04-04T11:06:02.961Z,990.59
2023-04-04T11:07:03.129Z,990.51
2023-04-04T11:08:09.866Z,990.79
2023-04-04T11:09:03.004Z,990.60
2023-04-04T11:10:04.091Z,990.65
2023-04-04T11:11:16.338Z,990.65
2023-04-04T11:12:03.226Z,990.54
2023-04-04T11:13:13.974Z,990.71
2023-04-04T11:14:03.313Z,990.57
2023-04-04T11:15:03.403Z,990.63
2023-04-04T11:16:03.878Z,990.57
2023-04-04T11:17:03.680Z,990.57
2023-04-04T11:18:21.691Z,990.60
2023-04-04T11:19:03.926Z,990.54
2023-04-04T11:20:03.040Z,990.63
2023-04-04T11:21:04.040Z,990.52
2023-04-04T11:22:04.044Z,990.49
2023-04-04T11:23:03.008Z,990.41
2023-04-04T11:24:03.120Z,990.60
2023-04-04T11:25:03.236Z,990.60
2023-04-04T11:26:03.133Z,990.54
2023-04-04T11:27:03.182Z,990.52
2023-04-04T11:28:03.230Z,990.66
2023-04-04T11:29:03.154Z,990.54
2023-04-04T11:30:03.207Z,990.41
2023-04-04T11:31:03.383Z,990.41
2023-04-04T11:32:03.353Z,990.54
2023-04-04T11:33:08.528Z,990.62
2023-04-04T11:34:03.473Z,990.48
2023-04-04T11:35:03.338Z,990.41
2023-04-04T11:36:04.200Z,990.38
2023-04-04T11:37:03.402Z,990.43
2023-04-04T11:38:03.224Z,990.41
2023-04-04T11:39:03.356Z,990.48
2023-04-04T11:40:03.524Z,990.29
2023-04-04T11:41:03.417Z,990.54
2023-04-04T11:42:03.602Z,990.43
2023-04-04T11:43:03.661Z,990.48
2023-04-04T11:44:03.732Z,990.32
2023-04-04T11:45:03.733Z,990.40
2023-04-04T11:46:03.734Z,990.48
2023-04-04T11:47:03.803Z,990.43
2023-04-04T11:48:03.934Z,990.34
2023-04-04T11:49:03.803Z,990.48
2023-04-04T11:50:03.145Z,990.34
2023-04-04T11:51:03.074Z,990.29
2023-04-04T11:52:03.235Z,990.26
2023-04-04T11:53:03.227Z,990.25
2023-04-04T11:54:03.538Z,990.14
2023-04-04T11:55:03.772Z,990.31
2023-04-04T11:56:03.825Z,990.30
2023-04-04T11:57:03.780Z,990.28
2023-04-04T11:58:04.064Z,990.25
2023-04-04T11:59:12.037Z,990.33
2023-04-04T12:00:03.123Z,990.49
2023-04-04T12:01:03.255Z,990.44
2023-04-04T12:02:03.108Z,990.44
2023-04-04T12:03:03.481Z,990.52
2023-04-04T12:04:03.296Z,990.42
2023-04-04T12:05:03.600Z,990.42
2023-04-04T12:06:03.552Z,990.39
2023-04-04T12:07:03.748Z,990.39
2023-04-04T12:08:03.674Z,990.39
2023-04-04T12:09:03.836Z,990.42
2023-04-04T12:10:04.103Z,990.49
2023-04-04T12:11:03.018Z,990.39
2023-04-04T12:12:02.961Z,990.47
2023-04-04T12:13:03.196Z,990.36
2023-04-04T12:14:03.267Z,990.42
2023-04-04T12:15:17.615Z,990.31
2023-04-04T12:16:03.485Z,990.28
2023-04-04T12:17:03.415Z,990.58
2023-04-04T12:18:03.558Z,990.47
2023-04-04T12:19:03.627Z,990.52
2023-04-04T12:20:03.638Z,990.55
2023-04-04T12:21:03.549Z,990.36
2023-04-04T12:22:05.584Z,990.39
2023-04-04T12:23:03.549Z,990.44
2023-04-04T12:24:03.598Z,990.36
2023-04-04T12:25:03.720Z,990.39
2023-04-04T12:26:03.709Z,990.52
2023-04-04T12:27:03.879Z,990.41
2023-04-04T12:28:04.164Z,990.27